Time;durP1;ratioP1;P1;durP2;ratioP2;P2;SDS_P1;SDS_P2;PMS_P1;PMS_P2;Temp;Humidity;BMP_temperature;BMP_pressure;BME280_temperature;BME280_humidity;BME280_pressure;Samples;Min_cycle;Max_cycle;Signal;HPM_P1;HPM_P2
2022/11/23 00:00:11;;;;;;;20.27;13.77;;;22.50;39.40;;;;;;7708283;22;83081;-71
2022/11/23 00:03:12;;;;;;;21.13;13.82;;;22.50;39.40;;;;;;7714028;22;83319;-68
2022/11/23 00:06:12;;;;;;;19.27;13.38;;;22.50;39.50;;;;;;7707213;22;82967;-71
2022/11/23 00:09:13;;;;;;;20.63;14.55;;;22.50;39.50;;;;;;7705689;22;83024;-75
2022/11/23 00:12:13;;;;;;;19.20;13.57;;;22.50;39.60;;;;;;7708376;22;83465;-77
2022/11/23 00:15:14;;;;;;;18.30;13.50;;;22.50;39.60;;;;;;7706805;22;89918;-76
2022/11/23 00:18:14;;;;;;;20.35;13.90;;;22.50;39.40;;;;;;7709649;22;83024;-77
2022/11/23 00:21:15;;;;;;;21.80;14.73;;;22.50;39.60;;;;;;7708642;22;84152;-76
2022/11/23 00:24:15;;;;;;;22.48;14.82;;;22.50;39.40;;;;;;7712729;22;83256;-77
2022/11/23 00:27:16;;;;;;;21.75;13.98;;;22.50;39.20;;;;;;7684750;22;85390;-77
2022/11/23 00:30:16;;;;;;;23.40;15.07;;;22.50;39.20;;;;;;7715175;22;82972;-75
2022/11/23 00:33:16;;;;;;;19.50;13.45;;;22.50;39.10;;;;;;7713193;22;83789;-78
2022/11/23 00:36:17;;;;;;;21.33;14.50;;;22.50;39.10;;;;;;7712977;22;83304;-77
2022/11/23 00:39:17;;;;;;;21.38;13.88;;;22.50;39.10;;;;;;7714342;22;83238;-75
2022/11/23 00:42:18;;;;;;;24.50;14.80;;;22.50;39.00;;;;;;7684312;22;84258;-76
2022/11/23 00:45:18;;;;;;;22.55;13.52;;;22.50;39.20;;;;;;7712747;22;84227;-64
2022/11/23 00:48:20;;;;;;;20.83;13.60;;;22.40;38.90;;;;;;7710270;22;83022;-64
2022/11/23 00:51:20;;;;;;;23.45;15.35;;;22.50;39.00;;;;;;7688077;22;83245;-64
2022/11/23 00:54:21;;;;;;;23.33;14.93;;;22.40;39.00;;;;;;7709657;22;83056;-65
2022/11/23 00:57:21;;;;;;;20.48;14.07;;;22.40;39.00;;;;;;7713669;22;83013;-65
2022/11/23 01:00:22;;;;;;;20.98;14.68;;;22.40;38.90;;;;;;7687188;22;85091;-65
2022/11/23 01:03:23;;;;;;;24.50;15.15;;;22.40;38.90;;;;;;7686861;22;85788;-67
2022/11/23 01:06:25;;;;;;;19.38;13.43;;;22.40;38.90;;;;;;7685948;22;85860;-66
2022/11/23 01:09:25;;;;;;;21.27;13.75;;;22.40;38.90;;;;;;7711917;22;84473;-67
2022/11/23 01:12:26;;;;;;;22.02;14.77;;;22.40;39.00;;;;;;7685070;22;85077;-65
2022/11/23 01:15:26;;;;;;;22.65;14.55;;;22.40;39.00;;;;;;7710307;22;83405;-66
2022/11/23 01:18:27;;;;;;;19.65;13.23;;;22.40;39.00;;;;;;7687648;22;85910;-67
2022/11/23 01:21:28;;;;;;;22.00;14.23;;;22.40;39.10;;;;;;7710184;22;85373;-54
2022/11/23 01:24:28;;;;;;;20.45;13.25;;;22.40;39.00;;;;;;7711126;22;83053;-55
2022/11/23 01:27:29;;;;;;;21.85;14.00;;;22.40;39.10;;;;;;7684061;22;86247;-55
2022/11/23 01:30:33;;;;;;;21.08;13.77;;;22.40;39.00;;;;;;7714819;22;83030;-56
2022/11/23 01:33:33;;;;;;;21.45;14.60;;;22.40;39.10;;;;;;7712170;22;83036;-55
2022/11/23 01:36:34;;;;;;;23.27;14.90;;;22.30;39.00;;;;;;7714371;22;83067;-56
2022/11/23 01:39:34;;;;;;;18.60;13.45;;;22.30;39.00;;;;;;7682134;22;85488;-63
2022/11/23 01:42:35;;;;;;;20.17;13.15;;;22.30;39.00;;;;;;7713634;22;82963;-55
2022/11/23 01:45:35;;;;;;;18.85;13.23;;;22.30;38.90;;;;;;7712089;22;82900;-55
2022/11/23 01:48:36;;;;;;;18.98;12.77;;;22.30;39.10;;;;;;7714818;22;82873;-56
2022/11/23 01:51:36;;;;;;;20.25;13.43;;;22.40;39.20;;;;;;7710075;22;83134;-57
2022/11/23 01:54:37;;;;;;;20.15;12.90;;;22.30;39.20;;;;;;7713639;22;83101;-56
2022/11/23 01:57:37;;;;;;;16.83;11.98;;;22.40;39.30;;;;;;7711369;22;85009;-58
2022/11/23 02:00:38;;;;;;;16.95;11.88;;;22.30;39.40;;;;;;7687859;22;85805;-59
2022/11/23 02:03:38;;;;;;;16.90;12.07;;;22.30;39.40;;;;;;7710280;22;83324;-59
2022/11/23 02:06:42;;;;;;;18.92;12.50;;;22.40;39.60;;;;;;7711853;22;83335;-59
2022/11/23 02:09:42;;;;;;;17.35;11.75;;;22.30;39.50;;;;;;7684178;22;86144;-59
2022/11/23 02:12:43;;;;;;;18.95;12.48;;;22.30;39.50;;;;;;7679907;22;86002;-58
2022/11/23 02:15:46;;;;;;;16.80;11.43;;;22.30;39.50;;;;;;7680432;22;86158;-58
2022/11/23 02:18:49;;;;;;;17.30;11.73;;;22.30;39.50;;;;;;7708700;22;84371;-55
2022/11/23 02:21:49;;;;;;;17.88;11.43;;;22.30;39.40;;;;;;7708436;22;83011;-55
2022/11/23 02:24:50;;;;;;;15.38;10.93;;;22.30;39.50;;;;;;7709076;22;83661;-56
2022/11/23 02:27:50;;;;;;;18.10;11.25;;;22.30;39.50;;;;;;7685866;22;85901;-57
2022/11/23 02:30:52;;;;;;;14.75;10.85;;;22.30;39.50;;;;;;7683367;22;86291;-57
2022/11/23 02:33:56;;;;;;;15.50;10.95;;;22.40;39.90;;;;;;7682427;22;90398;-56
2022/11/23 02:36:57;;;;;;;15.73;10.85;;;22.30;39.50;;;;;;7712266;22;82869;-77
2022/11/23 02:39:57;;;;;;;15.50;10.18;;;22.30;40.20;;;;;;7713796;22;82776;-77
2022/11/23 02:42:58;;;;;;;13.60;9.93;;;22.30;39.80;;;;;;7684769;22;85649;-76
2022/11/23 02:46:01;;;;;;;15.95;11.20;;;22.30;40.00;;;;;;7689152;22;85555;-72
2022/11/23 02:49:02;;;;;;;14.85;10.23;;;22.30;39.90;;;;;;7712629;22;82940;-72
2022/11/23 02:52:02;;;;;;;17.67;11.55;;;22.30;39.70;;;;;;7713866;22;83058;-72
2022/11/23 02:55:03;;;;;;;16.08;10.90;;;22.30;39.50;;;;;;7711579;22;83633;-64
2022/11/23 02:58:03;;;;;;;16.55;11.15;;;22.30;39.70;;;;;;7710782;22;83265;-64
2022/11/23 03:01:04;;;;;;;15.18;11.13;;;22.30;39.90;;;;;;7711492;22;82795;-65
2022/11/23 03:04:04;;;;;;;18.15;11.65;;;22.30;40.10;;;;;;7683728;22;85972;-63
2022/11/23 03:07:05;;;;;;;16.77;11.32;;;22.30;39.50;;;;;;7711453;22;82961;-62
2022/11/23 03:10:06;;;;;;;18.23;11.73;;;22.30;39.60;;;;;;7712783;22;82592;-62
2022/11/23 03:13:06;;;;;;;15.02;11.05;;;22.30;39.50;;;;;;7711468;22;83536;-76
2022/11/23 03:16:09;;;;;;;17.83;11.50;;;22.30;39.50;;;;;;7711833;22;84216;-76
2022/11/23 03:19:09;;;;;;;16.20;11.40;;;22.30;39.40;;;;;;7711220;22;83074;-75
2022/11/23 03:22:10;;;;;;;16.02;11.85;;;22.30;39.30;;;;;;7686294;22;86277;-75
2022/11/23 03:25:10;;;;;;;18.88;12.00;;;22.30;39.30;;;;;;7683848;22;85466;-70
2022/11/23 03:28:12;;;;;;;17.20;11.38;;;22.30;39.40;;;;;;7685342;22;83050;-75
2022/11/23 03:31:13;;;;;;;16.23;11.27;;;22.30;39.40;;;;;;7682739;22;86285;-74
2022/11/23 03:34:13;;;;;;;20.08;12.20;;;22.30;39.40;;;;;;7683531;22;86191;-76
2022/11/23 03:37:14;;;;;;;17.58;12.30;;;22.20;39.20;;;;;;7687716;22;84412;-73
2022/11/23 03:40:15;;;;;;;17.90;12.85;;;22.20;39.10;;;;;;7685875;22;85572;-76
2022/11/23 03:43:34;;;;;;;18.52;11.85;;;22.20;39.00;;;;;;7711581;22;83747;-74
2022/11/23 03:46:34;;;;;;;20.08;13.25;;;22.20;39.10;;;;;;7684355;22;86285;-76
2022/11/23 03:49:35;;;;;;;20.73;12.95;;;22.20;39.10;;;;;;7682249;22;85768;-72
2022/11/23 03:52:36;;;;;;;22.08;12.93;;;22.20;39.00;;;;;;7711584;22;84524;-72
2022/11/23 03:55:37;;;;;;;18.08;12.75;;;22.20;39.00;;;;;;7710248;22;83146;-73
2022/11/23 03:58:38;;;;;;;18.35;12.35;;;22.30;39.20;;;;;;7687548;22;85885;-75
2022/11/23 04:01:42;;;;;;;19.83;13.18;;;22.20;39.30;;;;;;7681630;22;85854;-74
2022/11/23 04:04:49;;;;;;;17.70;12.27;;;22.20;39.10;;;;;;7686347;22;83506;-73
2022/11/23 04:08:15;;;;;;;16.92;11.98;;;22.20;39.20;;;;;;7713394;22;84694;-58
2022/11/23 04:11:16;;;;;;;19.40;11.82;;;22.20;39.00;;;;;;7649908;22;86705;-58
2022/11/23 04:14:20;;;;;;;18.77;12.20;;;22.20;39.00;;;;;;7605376;22;84067;-58
2022/11/23 04:17:21;;;;;;;20.15;13.00;;;22.30;39.10;;;;;;7607926;22;85751;-58
2022/11/23 04:20:22;;;;;;;20.00;13.32;;;22.30;38.90;;;;;;7609610;22;85808;-60
2022/11/23 04:23:23;;;;;;;21.40;13.57;;;22.30;38.70;;;;;;7610071;22;84222;-59
2022/11/23 04:26:24;;;;;;;20.17;13.40;;;22.30;38.30;;;;;;7608316;22;86238;-75
2022/11/23 04:29:24;;;;;;;20.15;13.82;;;22.40;38.10;;;;;;7609056;22;84703;-76
2022/11/23 04:32:27;;;;;;;19.48;13.23;;;22.40;38.10;;;;;;7607803;22;84735;-75
2022/11/23 04:35:28;;;;;;;18.45;13.15;;;22.50;38.20;;;;;;7609479;22;84654;-75
2022/11/23 04:38:29;;;;;;;18.20;12.43;;;22.50;38.20;;;;;;7604963;22;85126;-75
2022/11/23 04:41:29;;;;;;;18.02;12.45;;;22.50;38.10;;;;;;7608873;22;85496;-75
2022/11/23 04:44:31;;;;;;;17.52;12.15;;;22.60;38.00;;;;;;7632188;22;84830;-72
2022/11/23 04:47:36;;;;;;;17.88;12.25;;;22.60;38.10;;;;;;7608136;22;85536;-75
2022/11/23 04:50:41;;;;;;;19.27;13.30;;;22.60;37.90;;;;;;7607437;22;85148;-76
2022/11/23 04:53:44;;;;;;;18.08;12.68;;;22.70;37.90;;;;;;7634711;22;85328;-77
2022/11/23 04:56:44;;;;;;;17.35;11.57;;;22.70;37.90;;;;;;7648678;22;84657;-73
2022/11/23 04:59:45;;;;;;;17.08;12.10;;;22.70;37.90;;;;;;7674850;22;83462;-74
2022/11/23 05:02:45;;;;;;;19.35;13.02;;;22.70;37.80;;;;;;7646884;22;85544;-64
2022/11/23 05:05:54;;;;;;;16.50;12.18;;;22.70;37.50;;;;;;7649346;22;84689;-65
2022/11/23 05:08:54;;;;;;;17.40;12.10;;;22.80;37.60;;;;;;7646887;22;85633;-64
2022/11/23 05:12:09;;;;;;;18.50;12.77;;;22.80;37.60;;;;;;7647677;22;85816;-66
2022/11/23 05:15:10;;;;;;;19.17;12.88;;;22.80;37.50;;;;;;7647919;22;85829;-64
2022/11/23 05:18:12;;;;;;;18.20;12.32;;;22.80;37.60;;;;;;7648308;22;85909;-60
2022/11/23 05:21:13;;;;;;;18.98;12.52;;;22.80;37.70;;;;;;7641743;22;85382;-62
2022/11/23 05:24:14;;;;;;;17.58;12.32;;;22.80;37.70;;;;;;7653330;22;83695;-65
2022/11/23 05:27:21;;;;;;;23.20;13.45;;;22.90;37.90;;;;;;7636212;22;85613;-62
2022/11/23 05:30:22;;;;;;;18.60;13.77;;;22.90;37.80;;;;;;7642469;22;85516;-62
2022/11/23 05:33:22;;;;;;;18.88;13.90;;;22.90;37.60;;;;;;7667282;22;83160;-65
2022/11/23 05:36:23;;;;;;;26.38;13.63;;;23.00;37.50;;;;;;7645761;22;85817;-72
2022/11/23 05:39:24;;;;;;;22.45;13.65;;;23.00;37.90;;;;;;7643388;22;90463;-54
2022/11/23 05:42:26;;;;;;;23.17;15.60;;;23.00;38.20;;;;;;7643155;22;85530;-54
2022/11/23 05:45:30;;;;;;;22.48;15.43;;;23.00;38.20;;;;;;7643428;22;86110;-55
2022/11/23 05:48:31;;;;;;;22.98;15.25;;;23.00;38.10;;;;;;7645784;22;85449;-56
2022/11/23 05:51:32;;;;;;;22.58;16.10;;;23.10;38.80;;;;;;7641493;22;83941;-57
2022/11/23 05:54:33;;;;;;;22.80;15.43;;;23.10;38.80;;;;;;7642566;22;85896;-56
2022/11/23 05:57:41;;;;;;;23.15;15.55;;;23.10;38.90;;;;;;7646455;22;86043;-56
2022/11/23 06:00:42;;;;;;;29.88;16.88;;;23.10;38.80;;;;;;7641973;22;85431;-57
2022/11/23 06:03:43;;;;;;;22.08;15.35;;;23.10;39.00;;;;;;7639613;22;85411;-58
2022/11/23 06:06:44;;;;;;;23.67;15.38;;;23.10;39.40;;;;;;7668228;22;85081;-57
2022/11/23 06:09:44;;;;;;;22.38;15.32;;;23.10;39.10;;;;;;7674865;22;83342;-56
2022/11/23 06:12:45;;;;;;;21.55;14.90;;;23.10;38.90;;;;;;7640793;22;85710;-58
2022/11/23 06:15:48;;;;;;;23.08;14.80;;;23.10;39.40;;;;;;7646475;22;86317;-59
2022/11/23 06:18:54;;;;;;;22.17;14.98;;;23.10;38.30;;;;;;7645511;22;85993;-57
2022/11/23 06:21:54;;;;;;;27.95;14.70;;;23.10;38.70;;;;;;7643964;22;89010;-59
2022/11/23 06:24:56;;;;;;;21.13;15.40;;;23.00;38.80;;;;;;7645729;22;85981;-62
2022/11/23 06:28:02;;;;;;;22.50;15.32;;;23.00;38.80;;;;;;7661117;22;83088;-59
2022/11/23 06:31:11;;;;;;;19.88;14.07;;;22.90;38.90;;;;;;7515798;22;85890;-60
2022/11/23 06:34:11;;;;;;;20.25;13.70;;;22.90;38.80;;;;;;7639299;22;84201;-52
2022/11/23 06:37:12;;;;;;;18.65;13.68;;;22.90;38.50;;;;;;7639245;22;85624;-58
2022/11/23 06:40:13;;;;;;;19.85;13.63;;;22.80;38.30;;;;;;7641353;22;85021;-58
2022/11/23 06:43:14;;;;;;;18.88;13.82;;;22.80;38.40;;;;;;7639858;22;84567;-57
2022/11/23 06:46:17;;;;;;;19.67;14.05;;;22.80;38.40;;;;;;7632029;22;85600;-53
2022/11/23 06:49:20;;;;;;;19.15;12.18;;;22.70;38.10;;;;;;7627905;22;84347;-57
2022/11/23 06:52:31;;;;;;;19.48;12.77;;;22.70;38.00;;;;;;7636680;22;83280;-56
2022/11/23 06:55:31;;;;;;;17.75;12.52;;;22.70;38.00;;;;;;7644164;22;85716;-57
2022/11/23 06:58:32;;;;;;;18.25;12.48;;;22.60;37.70;;;;;;7669810;22;85765;-55
2022/11/23 07:01:34;;;;;;;17.05;11.70;;;22.60;37.80;;;;;;7643272;22;85757;-55
2022/11/23 07:04:40;;;;;;;17.23;12.40;;;22.60;37.80;;;;;;7642021;22;86667;-54
2022/11/23 07:07:46;;;;;;;17.40;12.50;;;22.60;37.80;;;;;;7643072;22;85790;-56
2022/11/23 07:10:53;;;;;;;17.20;11.77;;;22.60;37.80;;;;;;7644057;22;86195;-55
2022/11/23 07:13:54;;;;;;;16.70;12.20;;;22.50;37.80;;;;;;7643065;22;86131;-57
2022/11/23 07:16:57;;;;;;;15.63;11.45;;;22.50;37.70;;;;;;7640024;22;85322;-54
2022/11/23 07:19:58;;;;;;;16.30;11.32;;;22.50;37.80;;;;;;7645737;22;85665;-55
2022/11/23 07:22:59;;;;;;;14.68;11.00;;;22.40;37.90;;;;;;7642681;22;85794;-56
2022/11/23 07:26:00;;;;;;;16.60;10.45;;;22.40;37.90;;;;;;7644109;22;86206;-56
2022/11/23 07:29:00;;;;;;;15.23;10.85;;;22.40;37.90;;;;;;7644715;22;86031;-56
2022/11/23 07:32:01;;;;;;;15.13;10.73;;;22.40;37.90;;;;;;7643079;22;84812;-55
2022/11/23 07:35:02;;;;;;;15.27;10.20;;;22.40;37.90;;;;;;7640261;22;86059;-56
2022/11/23 07:38:06;;;;;;;14.55;10.30;;;22.30;38.00;;;;;;7643051;22;84785;-56
2022/11/23 07:41:07;;;;;;;12.75;9.70;;;22.30;38.00;;;;;;7643267;22;84943;-55
2022/11/23 07:44:20;;;;;;;17.08;11.32;;;22.30;38.00;;;;;;7648450;22;84417;-57
2022/11/23 07:47:21;;;;;;;14.40;10.68;;;22.30;38.20;;;;;;7669429;22;83781;-59
2022/11/23 07:50:21;;;;;;;14.23;9.77;;;22.30;38.20;;;;;;7670267;22;83610;-58
2022/11/23 07:53:22;;;;;;;13.85;10.15;;;22.30;38.30;;;;;;7674722;22;83950;-59
2022/11/23 07:56:23;;;;;;;15.73;10.57;;;22.30;38.30;;;;;;7669358;22;84567;-59
2022/11/23 07:59:23;;;;;;;13.90;10.40;;;22.30;38.40;;;;;;7669969;22;83972;-59
2022/11/23 08:02:24;;;;;;;13.90;10.00;;;22.30;38.60;;;;;;7669375;22;83678;-59
2022/11/23 08:05:25;;;;;;;13.75;9.25;;;22.20;38.70;;;;;;7671012;22;83434;-57
2022/11/23 08:08:25;;;;;;;13.55;10.40;;;22.20;38.90;;;;;;7677688;22;81974;-66
2022/11/23 08:11:26;;;;;;;12.63;10.02;;;22.20;39.00;;;;;;7671632;22;83208;-66
2022/11/23 08:14:26;;;;;;;13.15;9.70;;;22.20;39.30;;;;;;7672233;22;83221;-66
2022/11/23 08:17:27;;;;;;;13.75;9.85;;;22.20;39.50;;;;;;7672765;22;83049;-66
2022/11/23 08:20:27;;;;;;;13.48;10.45;;;22.20;39.60;;;;;;7671726;22;81289;-66
2022/11/23 08:23:28;;;;;;;13.95;10.18;;;22.20;39.70;;;;;;7667931;22;83100;-66
2022/11/23 08:26:28;;;;;;;14.23;9.75;;;22.20;39.50;;;;;;7667889;22;83212;-61
2022/11/23 08:29:29;;;;;;;14.05;9.63;;;22.20;39.70;;;;;;7675000;22;81873;-62
2022/11/23 08:32:29;;;;;;;12.90;9.45;;;22.20;40.00;;;;;;7671389;22;81589;-60
2022/11/23 08:35:30;;;;;;;12.93;9.80;;;22.20;39.70;;;;;;7676647;22;81451;-59
2022/11/23 08:38:31;;;;;;;13.25;9.93;;;22.20;39.80;;;;;;7674817;22;81237;-62
2022/11/23 08:41:31;;;;;;;14.55;10.32;;;22.20;39.90;;;;;;7677143;22;80921;-61
2022/11/23 08:44:32;;;;;;;14.45;10.45;;;22.20;39.80;;;;;;7672935;22;82799;-59
2022/11/23 08:47:32;;;;;;;13.43;9.38;;;22.20;40.00;;;;;;7667222;22;82640;-59
2022/11/23 08:50:34;;;;;;;13.75;9.57;;;22.20;39.90;;;;;;7674895;22;83151;-59
2022/11/23 08:53:34;;;;;;;14.63;9.02;;;22.10;40.00;;;;;;7674633;22;80480;-59
2022/11/23 08:56:35;;;;;;;13.70;9.60;;;22.10;39.80;;;;;;7674100;22;80516;-59
2022/11/23 08:59:35;;;;;;;11.95;8.45;;;22.10;39.80;;;;;;7679652;22;80804;-60
2022/11/23 09:02:36;;;;;;;11.63;8.43;;;22.10;39.90;;;;;;7675388;22;81281;-61
2022/11/23 09:05:36;;;;;;;12.38;8.32;;;22.10;39.90;;;;;;7676020;22;81410;-61
2022/11/23 09:08:37;;;;;;;11.55;8.40;;;22.10;40.00;;;;;;7678389;22;80509;-63
2022/11/23 09:11:37;;;;;;;13.02;8.10;;;22.10;40.20;;;;;;7679100;22;80938;-61
2022/11/23 09:14:37;;;;;;;11.00;7.95;;;22.10;40.10;;;;;;7673275;22;81875;-61
2022/11/23 09:17:38;;;;;;;13.80;9.27;;;22.10;40.30;;;;;;7678358;22;81078;-62
2022/11/23 09:20:39;;;;;;;11.38;8.25;;;22.10;40.10;;;;;;7675201;22;81566;-59
2022/11/23 09:23:39;;;;;;;13.57;9.18;;;22.10;40.10;;;;;;7675098;22;80953;-59
2022/11/23 09:26:40;;;;;;;12.90;9.13;;;22.10;40.30;;;;;;7678284;22;80483;-58
2022/11/23 09:29:40;;;;;;;14.32;9.43;;;22.10;40.50;;;;;;7674721;22;81412;-57
2022/11/23 09:32:41;;;;;;;13.48;9.25;;;22.10;40.30;;;;;;7674257;22;80598;-59
2022/11/23 09:35:41;;;;;;;14.50;8.93;;;22.10;40.20;;;;;;7675925;22;81162;-59
2022/11/23 09:38:42;;;;;;;15.02;10.13;;;22.10;40.40;;;;;;7676248;22;80677;-60
2022/11/23 09:41:42;;;;;;;13.68;9.65;;;22.10;40.20;;;;;;7670274;22;82674;-59
2022/11/23 09:44:43;;;;;;;16.42;10.73;;;22.10;40.30;;;;;;7675274;22;83120;-60
2022/11/23 09:47:43;;;;;;;15.32;10.30;;;22.10;40.40;;;;;;7671122;22;84133;-58
2022/11/23 09:50:44;;;;;;;14.23;10.35;;;22.10;40.30;;;;;;7671313;22;83808;-58
2022/11/23 09:53:44;;;;;;;13.95;9.55;;;22.00;40.10;;;;;;7672723;22;83374;-59
2022/11/23 09:56:45;;;;;;;13.77;9.30;;;22.10;40.30;;;;;;7676023;22;83112;-61
2022/11/23 09:59:46;;;;;;;13.93;9.57;;;22.10;40.50;;;;;;7675653;22;80423;-62
2022/11/23 10:02:46;;;;;;;14.65;9.52;;;22.10;40.60;;;;;;7675124;22;81053;-61
2022/11/23 10:05:47;;;;;;;12.25;8.98;;;22.10;40.60;;;;;;7676675;22;81105;-61
2022/11/23 10:08:47;;;;;;;12.65;9.73;;;22.10;40.70;;;;;;7674781;22;81071;-60
2022/11/23 10:11:47;;;;;;;16.58;9.10;;;22.10;40.60;;;;;;7674521;22;81169;-61
2022/11/23 10:14:48;;;;;;;13.75;9.20;;;22.10;40.50;;;;;;7678737;22;80838;-61
2022/11/23 10:17:49;;;;;;;12.23;8.73;;;22.00;40.60;;;;;;7646066;22;80949;-61
2022/11/23 10:20:50;;;;;;;15.15;10.32;;;22.00;40.70;;;;;;7677181;22;80531;-61
2022/11/23 10:23:51;;;;;;;13.60;9.35;;;22.00;40.60;;;;;;7668699;22;83003;-62
2022/11/23 10:26:52;;;;;;;14.18;9.30;;;22.00;40.50;;;;;;7677255;22;82780;-62
2022/11/23 10:29:52;;;;;;;13.88;9.70;;;22.00;40.50;;;;;;7674745;22;81314;-62
2022/11/23 10:32:53;;;;;;;14.07;9.52;;;22.00;40.40;;;;;;7676878;22;80850;-66
2022/11/23 10:35:53;;;;;;;14.10;9.80;;;22.00;40.30;;;;;;7675920;22;80273;-65
2022/11/23 10:38:54;;;;;;;14.70;10.30;;;22.00;40.20;;;;;;7648756;22;81633;-64
2022/11/23 10:41:54;;;;;;;12.23;9.15;;;22.00;40.20;;;;;;7671993;22;83112;-64
2022/11/23 10:44:55;;;;;;;15.32;11.15;;;22.00;40.00;;;;;;7675267;22;83043;-65
2022/11/23 10:47:57;;;;;;;15.02;10.52;;;22.00;40.00;;;;;;7672857;22;82910;-64
2022/11/23 10:50:58;;;;;;;16.17;10.48;;;22.00;39.90;;;;;;7673987;22;83880;-60
2022/11/23 10:53:58;;;;;;;14.93;9.90;;;22.00;39.80;;;;;;7642496;22;83045;-60
2022/11/23 10:56:59;;;;;;;14.80;9.75;;;22.00;39.90;;;;;;7678299;22;82810;-60
2022/11/23 10:59:59;;;;;;;14.57;9.98;;;22.00;40.00;;;;;;7677272;22;80038;-58
2022/11/23 11:03:02;;;;;;;14.90;9.85;;;22.00;40.00;;;;;;7669681;22;83017;-61
2022/11/23 11:06:02;;;;;;;13.40;10.23;;;22.00;40.00;;;;;;7671970;22;83188;-59
2022/11/23 11:09:03;;;;;;;14.80;10.05;;;21.90;39.90;;;;;;7670654;22;83121;-55
2022/11/23 11:12:03;;;;;;;16.75;10.32;;;22.00;40.00;;;;;;7670776;22;83194;-57
2022/11/23 11:15:04;;;;;;;101.03;23.15;;;22.00;40.00;;;;;;7645504;22;84815;-54
2022/11/23 11:18:04;;;;;;;99.97;26.63;;;22.00;40.40;;;;;;7666319;22;84061;-53
2022/11/23 11:21:05;;;;;;;112.93;27.48;;;22.00;40.90;;;;;;7676868;22;83003;-55
2022/11/23 11:24:05;;;;;;;121.82;30.20;;;22.00;41.00;;;;;;7673510;22;83249;-51
2022/11/23 11:27:06;;;;;;;89.68;26.10;;;22.00;42.30;;;;;;7659441;22;83869;-53
2022/11/23 11:30:06;;;;;;;101.60;28.58;;;22.00;43.30;;;;;;7666783;22;84570;-56
2022/11/23 11:33:07;;;;;;;95.40;27.13;;;22.00;42.80;;;;;;7670626;22;83114;-54
2022/11/23 11:36:07;;;;;;;86.07;25.38;;;22.00;43.10;;;;;;7669519;22;84342;-54
2022/11/23 11:39:08;;;;;;;63.55;21.33;;;22.00;42.40;;;;;;7670006;22;84507;-55
2022/11/23 11:42:08;;;;;;;62.58;20.85;;;22.00;42.50;;;;;;7671217;22;83345;-53
2022/11/23 11:45:08;;;;;;;60.95;20.30;;;22.00;41.80;;;;;;7668620;22;83027;-49
2022/11/23 11:48:09;;;;;;;58.35;16.92;;;22.00;42.10;;;;;;7673447;22;83972;-56
2022/11/23 11:51:09;;;;;;;47.75;15.98;;;22.00;42.00;;;;;;7673748;22;83366;-55
2022/11/23 11:54:10;;;;;;;40.10;15.30;;;22.00;41.80;;;;;;7662834;22;83472;-55
2022/11/23 11:57:10;;;;;;;37.08;15.48;;;21.90;41.90;;;;;;7666024;22;83344;-55
2022/11/23 12:00:11;;;;;;;37.97;14.77;;;21.90;41.60;;;;;;7669700;22;83474;-56
2022/11/23 12:03:11;;;;;;;36.17;14.85;;;22.00;41.90;;;;;;7640620;22;84006;-55
2022/11/23 12:06:12;;;;;;;35.38;13.15;;;22.00;42.20;;;;;;7674282;22;82982;-62
2022/11/23 12:09:12;;;;;;;27.42;12.02;;;22.00;42.20;;;;;;7671142;22;83471;-62
2022/11/23 12:12:13;;;;;;;31.85;13.35;;;22.00;42.10;;;;;;7670853;22;84410;-63
2022/11/23 12:15:13;;;;;;;30.67;12.82;;;22.00;41.90;;;;;;7674483;22;83228;-62
2022/11/23 12:18:14;;;;;;;26.75;12.05;;;22.00;41.90;;;;;;7645426;22;89444;-63
2022/11/23 12:21:16;;;;;;;21.80;10.82;;;22.00;41.70;;;;;;7666036;22;84464;-64
2022/11/23 12:24:17;;;;;;;23.23;11.02;;;22.00;41.70;;;;;;7643543;22;83190;-58
2022/11/23 12:27:17;;;;;;;21.95;10.43;;;22.00;41.80;;;;;;7636041;22;83571;-55
2022/11/23 12:30:18;;;;;;;21.98;10.45;;;22.00;41.70;;;;;;7667491;22;83691;-57
2022/11/23 12:33:18;;;;;;;19.75;9.75;;;21.90;42.20;;;;;;7642417;22;84532;-57
2022/11/23 12:36:19;;;;;;;19.15;9.88;;;21.90;41.60;;;;;;7639478;22;82830;-55
2022/11/23 12:39:19;;;;;;;19.30;9.57;;;21.90;41.50;;;;;;7640884;22;80422;-54
2022/11/23 12:42:20;;;;;;;18.98;10.05;;;21.90;41.80;;;;;;7639727;22;80478;-54
2022/11/23 12:45:20;;;;;;;15.30;9.57;;;21.90;41.70;;;;;;7637755;22;82712;-56
2022/11/23 12:48:21;;;;;;;16.95;9.80;;;22.00;41.50;;;;;;7589271;22;84196;-57
2022/11/23 12:51:21;;;;;;;18.17;10.50;;;22.00;41.50;;;;;;7637768;22;81029;-56
2022/11/23 12:54:22;;;;;;;20.30;10.82;;;22.00;41.50;;;;;;7633389;22;83166;-55
2022/11/23 12:57:22;;;;;;;20.27;10.80;;;22.00;41.40;;;;;;7638553;22;83702;-58
2022/11/23 13:00:23;;;;;;;22.67;11.35;;;21.90;41.20;;;;;;7637546;22;83254;-65
2022/11/23 13:03:23;;;;;;;20.83;11.00;;;21.90;41.10;;;;;;7633833;22;83913;-64
2022/11/23 13:06:24;;;;;;;16.55;9.45;;;21.90;41.10;;;;;;7636151;22;83023;-64
2022/11/23 13:09:24;;;;;;;17.38;9.70;;;21.90;41.20;;;;;;7641747;22;83376;-62
2022/11/23 13:12:25;;;;;;;17.48;9.45;;;21.90;41.20;;;;;;7637155;22;81086;-64
2022/11/23 13:15:25;;;;;;;15.45;10.50;;;21.90;41.10;;;;;;7639808;22;81362;-64
2022/11/23 13:18:26;;;;;;;18.83;10.65;;;21.90;41.20;;;;;;7637276;22;83008;-59
2022/11/23 13:21:28;;;;;;;16.88;10.35;;;21.90;41.10;;;;;;7636072;22;83327;-60
2022/11/23 13:24:28;;;;;;;16.92;10.15;;;21.90;40.90;;;;;;7637024;22;83241;-61
2022/11/23 13:27:29;;;;;;;19.25;10.68;;;21.90;41.00;;;;;;7635600;22;83523;-60
2022/11/23 13:30:29;;;;;;;17.90;11.25;;;21.90;40.90;;;;;;7636189;22;83172;-58
2022/11/23 13:33:30;;;;;;;20.23;10.95;;;21.90;41.00;;;;;;7636375;22;83626;-60
2022/11/23 13:36:31;;;;;;;18.15;11.05;;;21.90;41.00;;;;;;7636648;22;83569;-59
2022/11/23 13:39:31;;;;;;;16.92;10.77;;;21.90;41.10;;;;;;7635246;22;84588;-59
2022/11/23 13:42:32;;;;;;;16.60;11.07;;;21.90;41.00;;;;;;7636258;22;83079;-60
2022/11/23 13:45:35;;;;;;;18.67;10.90;;;21.90;40.70;;;;;;7634722;22;83834;-60
2022/11/23 13:48:36;;;;;;;17.42;11.65;;;21.90;40.60;;;;;;7636301;22;82655;-59
2022/11/23 13:51:37;;;;;;;19.13;11.50;;;21.90;40.50;;;;;;7635684;22;83742;-61
2022/11/23 13:54:38;;;;;;;17.73;11.25;;;21.80;40.30;;;;;;7634456;22;82733;-61
2022/11/23 13:57:38;;;;;;;15.45;10.68;;;21.80;40.40;;;;;;7635278;22;84987;-63
2022/11/23 14:00:39;;;;;;;18.83;11.43;;;21.80;40.60;;;;;;7634119;22;83420;-63
2022/11/23 14:03:39;;;;;;;17.13;11.38;;;21.80;40.60;;;;;;7636439;22;83851;-63
2022/11/23 14:06:40;;;;;;;15.95;11.40;;;21.90;40.60;;;;;;7633666;22;83153;-61
2022/11/23 14:09:40;;;;;;;17.80;11.45;;;21.90;40.50;;;;;;7634594;22;83566;-62
2022/11/23 14:12:41;;;;;;;15.38;10.43;;;21.80;40.50;;;;;;7632524;22;83084;-62
2022/11/23 14:15:41;;;;;;;14.43;9.85;;;21.80;40.50;;;;;;7632873;22;83287;-62
2022/11/23 14:18:42;;;;;;;14.25;9.38;;;21.80;40.90;;;;;;7637998;22;82914;-61
2022/11/23 14:21:42;;;;;;;13.57;8.70;;;21.80;41.20;;;;;;7638983;22;80478;-62
2022/11/23 14:24:43;;;;;;;11.60;7.82;;;21.70;41.50;;;;;;7638421;22;80851;-62
2022/11/23 14:27:43;;;;;;;11.25;8.00;;;21.70;41.60;;;;;;7640384;22;81699;-61
2022/11/23 14:30:44;;;;;;;14.45;8.40;;;21.70;41.60;;;;;;7638249;22;80531;-61
2022/11/23 14:33:44;;;;;;;10.55;7.65;;;21.70;41.70;;;;;;7638137;22;80814;-61
2022/11/23 14:36:45;;;;;;;11.90;7.63;;;21.70;41.60;;;;;;7639881;22;80817;-63
2022/11/23 14:39:45;;;;;;;12.25;8.10;;;21.70;41.60;;;;;;7638774;22;80763;-62
2022/11/23 14:42:46;;;;;;;11.40;7.15;;;21.70;41.60;;;;;;7638307;22;80201;-61
2022/11/23 14:45:46;;;;;;;9.30;6.45;;;21.70;41.80;;;;;;7640396;22;80569;-61
2022/11/23 14:48:47;;;;;;;9.75;6.38;;;21.70;41.90;;;;;;7636377;22;80414;-62
2022/11/23 14:51:47;;;;;;;9.80;6.53;;;21.80;41.80;;;;;;7631658;22;81884;-61
2022/11/23 14:54:48;;;;;;;9.68;6.63;;;21.70;41.90;;;;;;7634041;22;79933;-59
2022/11/23 14:57:48;;;;;;;9.98;6.90;;;21.70;41.80;;;;;;7636776;22;80330;-60
2022/11/23 15:00:49;;;;;;;9.45;6.47;;;21.80;42.20;;;;;;7626682;22;82439;-63
2022/11/23 15:03:49;;;;;;;11.00;7.05;;;21.70;42.30;;;;;;7632603;22;81130;-63
2022/11/23 15:06:50;;;;;;;10.32;6.30;;;21.70;42.60;;;;;;7638489;22;80331;-62
2022/11/23 15:09:50;;;;;;;11.48;7.38;;;21.70;43.10;;;;;;7635770;22;80935;-66
2022/11/23 15:12:51;;;;;;;12.68;7.45;;;21.70;43.40;;;;;;7636816;22;80821;-61
2022/11/23 15:15:51;;;;;;;11.50;6.18;;;21.70;44.30;;;;;;7630158;22;81430;-59
2022/11/23 15:18:52;;;;;;;11.27;6.90;;;21.80;43.90;;;;;;7630611;22;81448;-59
2022/11/23 15:21:52;;;;;;;10.05;6.80;;;21.90;43.80;;;;;;7629749;22;80725;-60